Time;durP1;ratioP1;P1;durP2;ratioP2;P2;SDS_P1;SDS_P2;PMS_P1;PMS_P2;Temp;Humidity;BMP_temperature;BMP_pressure;BME280_temperature;BME280_humidity;BME280_pressure;Samples;Min_cycle;Max_cycle;Signal;HPM_P1;HPM_P2
2021/06/11 00:01:41;;;;;;;1.83;0.40;;;18.00;78.30;;;;;;4825781;29;20492;-71
2021/06/11 00:04:09;;;;;;;0.82;0.50;;;17.90;78.30;;;;;;4825269;29;20055;-73
2021/06/11 00:06:37;;;;;;;0.50;0.32;;;17.90;78.30;;;;;;4814316;29;20133;-72
2021/06/11 00:09:07;;;;;;;1.17;0.50;;;17.90;78.30;;;;;;4827934;29;20055;-74
2021/06/11 00:11:35;;;;;;;0.40;0.40;;;17.90;78.30;;;;;;4816603;29;20089;-70
2021/06/11 00:14:03;;;;;;;0.60;0.50;;;17.90;78.30;;;;;;4814107;29;20524;-72
2021/06/11 00:16:32;;;;;;;2.65;0.40;;;17.90;78.30;;;;;;4809368;29;20070;-71
2021/06/11 00:19:00;;;;;;;0.30;0.30;;;17.90;78.30;;;;;;4824237;29;20050;-73
2021/06/11 00:21:28;;;;;;;0.30;0.30;;;17.90;78.40;;;;;;4810482;29;20378;-74
2021/06/11 00:23:56;;;;;;;0.25;0.25;;;17.90;78.50;;;;;;4810416;29;20074;-75
2021/06/11 00:26:24;;;;;;;0.43;0.28;;;17.90;78.40;;;;;;4811182;29;20054;-73
2021/06/11 00:28:52;;;;;;;0.35;0.32;;;17.90;78.50;;;;;;4826239;29;20054;-71
2021/06/11 00:31:21;;;;;;;0.60;0.35;;;17.90;78.60;;;;;;4843024;29;20061;-74
2021/06/11 00:33:50;;;;;;;1.55;0.40;;;17.90;78.60;;;;;;4827743;29;20062;-73
2021/06/11 00:36:18;;;;;;;1.75;0.40;;;17.90;78.70;;;;;;4821190;29;20051;-72
2021/06/11 00:38:46;;;;;;;0.50;0.40;;;17.90;78.60;;;;;;4828160;29;20078;-74
2021/06/11 00:41:14;;;;;;;2.80;0.50;;;17.90;78.60;;;;;;4818343;29;20054;-70
2021/06/11 00:43:42;;;;;;;0.50;0.35;;;17.90;78.60;;;;;;4835577;29;20474;-74
2021/06/11 00:46:10;;;;;;;0.85;0.30;;;17.90;78.70;;;;;;4842050;29;20054;-73
2021/06/11 00:48:39;;;;;;;0.77;0.50;;;18.00;78.70;;;;;;4824598;29;20077;-71
2021/06/11 00:51:07;;;;;;;0.40;0.40;;;18.00;78.60;;;;;;4823890;29;20054;-75
2021/06/11 00:53:35;;;;;;;0.55;0.45;;;18.00;78.50;;;;;;4823615;29;20054;-75
2021/06/11 00:56:03;;;;;;;0.65;0.40;;;17.90;78.40;;;;;;4808938;29;20051;-72
2021/06/11 00:58:31;;;;;;;0.90;0.52;;;17.90;78.40;;;;;;4793909;29;20050;-73
2021/06/11 01:00:59;;;;;;;1.52;0.40;;;17.90;78.40;;;;;;4819575;29;20054;-74
2021/06/11 01:03:27;;;;;;;1.63;0.40;;;17.90;78.40;;;;;;4809158;29;20453;-71
2021/06/11 01:05:55;;;;;;;1.00;0.65;;;17.90;78.40;;;;;;4808994;29;20458;-71
2021/06/11 01:08:24;;;;;;;0.30;0.30;;;18.00;78.40;;;;;;4826376;29;20385;-73
2021/06/11 01:10:53;;;;;;;0.40;0.40;;;17.90;78.40;;;;;;4815938;29;20058;-70
2021/06/11 01:13:21;;;;;;;0.52;0.50;;;17.90;78.40;;;;;;4808331;29;20055;-74
2021/06/11 01:15:50;;;;;;;0.50;0.50;;;17.90;78.40;;;;;;4813619;29;20058;-73
2021/06/11 01:18:20;;;;;;;0.47;0.47;;;17.90;78.40;;;;;;4849004;29;20046;-71
2021/06/11 01:20:48;;;;;;;0.30;0.30;;;17.90;78.40;;;;;;4819022;29;20076;-74
2021/06/11 01:23:41;;;;;;;2.33;0.60;;;17.80;78.40;;;;;;4808290;29;20059;-75
2021/06/11 01:26:29;;;;;;;0.70;0.40;;;17.90;78.50;;;;;;4805413;29;20370;-72
2021/06/11 01:29:04;;;;;;;0.75;0.47;;;17.80;78.50;;;;;;4790562;29;20070;-74
2021/06/11 01:31:34;;;;;;;1.60;0.60;;;17.90;78.50;;;;;;4811195;29;20058;-72
2021/06/11 01:34:13;;;;;;;1.02;0.60;;;17.80;78.50;;;;;;4826757;29;20069;-74
2021/06/11 01:36:46;;;;;;;1.50;0.50;;;17.80;78.40;;;;;;4826765;29;20058;-74
2021/06/11 01:39:18;;;;;;;0.63;0.35;;;17.80;78.40;;;;;;4824124;29;20058;-71
2021/06/11 01:41:47;;;;;;;0.73;0.50;;;17.80;78.40;;;;;;4807698;29;20073;-72
2021/06/11 01:44:16;;;;;;;1.38;0.70;;;17.80;78.40;;;;;;4824836;29;20309;-72
2021/06/11 01:46:47;;;;;;;1.00;0.47;;;17.80;78.40;;;;;;4841407;29;20054;-73
2021/06/11 01:49:16;;;;;;;0.70;0.50;;;17.80;78.50;;;;;;4826142;29;20062;-70
2021/06/11 01:51:45;;;;;;;1.17;0.40;;;17.80;78.50;;;;;;4841644;29;20354;-73
2021/06/11 01:54:14;;;;;;;2.45;0.60;;;17.80;78.60;;;;;;4825921;29;20058;-73
2021/06/11 01:56:43;;;;;;;1.10;0.60;;;17.70;78.60;;;;;;4807002;29;20055;-75
2021/06/11 01:59:12;;;;;;;0.90;0.50;;;17.70;78.70;;;;;;4808932;29;20374;-72
2021/06/11 02:01:41;;;;;;;3.65;0.60;;;17.70;78.80;;;;;;4821604;29;20078;-75
2021/06/11 02:04:10;;;;;;;0.85;0.57;;;17.70;78.90;;;;;;4825871;29;20069;-72
2021/06/11 02:06:40;;;;;;;1.02;0.60;;;17.70;78.90;;;;;;4827531;29;20385;-75
2021/06/11 02:09:09;;;;;;;1.23;0.52;;;17.70;79.00;;;;;;4840175;29;20065;-71
2021/06/11 02:11:41;;;;;;;1.85;0.77;;;17.70;79.00;;;;;;4824867;29;20061;-74
2021/06/11 02:14:13;;;;;;;1.65;0.50;;;17.70;79.00;;;;;;4827394;29;20054;-75
2021/06/11 02:16:43;;;;;;;0.60;0.60;;;17.60;79.10;;;;;;4825756;29;20389;-73
2021/06/11 02:19:13;;;;;;;0.68;0.68;;;17.60;79.20;;;;;;4826947;29;20066;-76
2021/06/11 02:21:43;;;;;;;1.75;0.60;;;17.60;79.20;;;;;;4833979;29;20389;-74
2021/06/11 02:24:11;;;;;;;2.20;0.63;;;17.60;79.30;;;;;;4822436;29;20065;-73
2021/06/11 02:26:41;;;;;;;1.35;0.55;;;17.50;79.30;;;;;;4822605;29;20058;-72
2021/06/11 02:29:10;;;;;;;2.80;0.90;;;17.50;79.30;;;;;;4807517;29;20069;-72
2021/06/11 02:31:39;;;;;;;1.67;0.68;;;17.50;79.40;;;;;;4819356;29;20054;-76
2021/06/11 02:34:07;;;;;;;0.77;0.50;;;17.50;79.40;;;;;;4811084;29;20178;-72
2021/06/11 02:36:35;;;;;;;1.02;0.60;;;17.50;79.40;;;;;;4821832;29;20058;-73
2021/06/11 02:39:03;;;;;;;0.50;0.45;;;17.50;79.40;;;;;;4822384;29;20055;-74
2021/06/11 02:41:44;;;;;;;2.55;0.80;;;17.40;79.50;;;;;;4829355;29;20069;-75
2021/06/11 02:44:12;;;;;;;0.70;0.70;;;17.40;79.50;;;;;;4808958;29;20063;-72
2021/06/11 02:47:04;;;;;;;0.85;0.70;;;17.30;79.60;;;;;;4821712;29;20489;-72
2021/06/11 02:49:42;;;;;;;3.03;0.93;;;17.40;79.60;;;;;;4828734;29;20069;-74
2021/06/11 02:52:11;;;;;;;0.88;0.70;;;17.30;79.70;;;;;;4825589;29;20059;-73
2021/06/11 02:54:42;;;;;;;1.52;0.80;;;17.40;79.60;;;;;;4839829;29;20069;-70
2021/06/11 02:57:45;;;;;;;0.70;0.70;;;17.40;79.60;;;;;;4856314;29;20054;-74
2021/06/11 03:00:14;;;;;;;1.30;0.70;;;17.40;79.60;;;;;;4834143;29;20054;-74
2021/06/11 03:02:53;;;;;;;0.93;0.73;;;17.40;79.50;;;;;;4807416;29;20055;-72
2021/06/11 03:05:23;;;;;;;1.27;0.68;;;17.40;79.50;;;;;;4823557;29;20050;-73
2021/06/11 03:07:56;;;;;;;0.85;0.77;;;17.40;79.50;;;;;;4814177;29;20065;-75
2021/06/11 03:10:31;;;;;;;1.92;1.02;;;17.30;79.50;;;;;;4825579;29;20054;-75
2021/06/11 03:13:01;;;;;;;2.10;0.60;;;17.40;79.60;;;;;;4819864;29;20058;-71
2021/06/11 03:15:32;;;;;;;2.03;0.80;;;17.30;79.50;;;;;;4806905;29;20054;-73
2021/06/11 03:18:04;;;;;;;0.65;0.65;;;17.30;79.50;;;;;;4808116;29;20051;-71
2021/06/11 03:20:39;;;;;;;1.77;0.75;;;17.40;79.60;;;;;;4810897;29;20065;-69
2021/06/11 03:23:23;;;;;;;2.42;0.80;;;17.40;79.60;;;;;;4824785;29;20063;-72
2021/06/11 03:26:13;;;;;;;1.70;0.75;;;17.40;79.50;;;;;;4826541;29;20058;-71
2021/06/11 03:28:50;;;;;;;2.40;0.80;;;17.40;79.50;;;;;;4825188;29;20362;-74
2021/06/11 03:31:22;;;;;;;2.65;1.00;;;17.30;79.50;;;;;;4817061;29;20059;-72
2021/06/11 03:33:55;;;;;;;2.65;0.70;;;17.30;79.40;;;;;;4809099;29;20059;-74
2021/06/11 03:36:31;;;;;;;1.02;0.80;;;17.30;79.50;;;;;;4822679;29;20357;-73
2021/06/11 03:39:04;;;;;;;1.48;0.80;;;17.30;79.60;;;;;;4821404;29;20038;-74
2021/06/11 03:41:37;;;;;;;0.80;0.68;;;17.30;79.60;;;;;;4805884;29;20058;-73
2021/06/11 03:44:10;;;;;;;4.05;0.77;;;17.30;79.60;;;;;;4852701;29;20069;-73
2021/06/11 03:46:42;;;;;;;2.03;0.70;;;17.30;79.70;;;;;;4839890;29;20078;-72
2021/06/11 03:49:12;;;;;;;1.38;0.80;;;17.30;79.70;;;;;;4824120;29;20058;-72
2021/06/11 03:51:43;;;;;;;0.80;0.77;;;17.40;79.60;;;;;;4812616;29;20486;-75
2021/06/11 03:54:13;;;;;;;1.10;0.80;;;17.30;79.60;;;;;;4809718;29;20055;-71
2021/06/11 03:56:43;;;;;;;1.38;0.80;;;17.40;79.60;;;;;;4811208;29;20050;-72
2021/06/11 03:59:14;;;;;;;1.38;0.80;;;17.40;79.60;;;;;;4839813;29;20057;-73
2021/06/11 04:01:50;;;;;;;1.40;0.90;;;17.40;79.50;;;;;;4823660;29;20050;-74
2021/06/11 04:04:18;;;;;;;1.13;0.80;;;17.40;79.40;;;;;;4828167;29;20062;-74
2021/06/11 04:07:00;;;;;;;1.60;0.80;;;17.40;79.30;;;;;;4829466;29;20058;-74
2021/06/11 04:09:36;;;;;;;4.13;1.17;;;17.40;79.30;;;;;;4828137;29;20077;-73
2021/06/11 04:12:09;;;;;;;0.85;0.77;;;17.40;79.30;;;;;;4842904;29;20066;-73
2021/06/11 04:14:40;;;;;;;0.82;0.70;;;17.30;79.20;;;;;;4840496;29;20047;-76
2021/06/11 04:17:17;;;;;;;1.67;0.82;;;17.40;79.10;;;;;;4814773;29;20521;-74
2021/06/11 04:19:50;;;;;;;2.17;1.00;;;17.40;78.90;;;;;;4810026;29;20055;-76
2021/06/11 04:22:27;;;;;;;2.75;0.85;;;17.30;78.70;;;;;;4823497;29;20073;-75
2021/06/11 04:24:56;;;;;;;0.93;0.70;;;17.30;78.50;;;;;;4824331;29;20058;-72
2021/06/11 04:27:25;;;;;;;1.67;0.80;;;17.30;78.30;;;;;;4839539;29;20059;-74
2021/06/11 04:29:54;;;;;;;1.80;0.77;;;17.30;78.20;;;;;;4810811;29;20069;-71
2021/06/11 04:32:22;;;;;;;2.03;0.70;;;17.30;78.00;;;;;;4828351;29;20085;-73
2021/06/11 04:34:55;;;;;;;1.42;0.70;;;17.30;78.00;;;;;;4839443;29;20062;-73
2021/06/11 04:37:23;;;;;;;2.55;0.90;;;17.30;78.00;;;;;;4821884;29;20051;-74
2021/06/11 04:39:52;;;;;;;0.80;0.70;;;17.30;78.00;;;;;;4824138;29;20055;-74
2021/06/11 04:42:20;;;;;;;0.93;0.63;;;17.30;78.00;;;;;;4823319;29;20469;-73
2021/06/11 04:44:47;;;;;;;1.05;0.75;;;17.30;78.00;;;;;;4810148;29;20070;-73
2021/06/11 04:47:15;;;;;;;1.45;0.80;;;17.30;78.00;;;;;;4809072;29;20073;-73
2021/06/11 04:49:44;;;;;;;0.70;0.70;;;17.30;78.00;;;;;;4814068;29;20069;-72
2021/06/11 04:52:12;;;;;;;2.85;0.68;;;17.30;78.00;;;;;;4827197;29;20499;-72
2021/06/11 04:54:40;;;;;;;1.60;0.98;;;17.30;78.00;;;;;;4824515;29;20070;-72
2021/06/11 04:57:08;;;;;;;0.82;0.70;;;17.30;78.00;;;;;;4809912;29;20055;-71
2021/06/11 04:59:36;;;;;;;2.30;0.93;;;17.30;78.00;;;;;;4815667;29;20062;-75
2021/06/11 05:02:04;;;;;;;1.50;0.70;;;17.30;77.90;;;;;;4830207;29;20058;-73
2021/06/11 05:04:32;;;;;;;0.85;0.60;;;17.30;77.70;;;;;;4835717;29;20063;-74
2021/06/11 05:07:01;;;;;;;1.63;0.60;;;17.30;77.70;;;;;;4807019;29;20792;-74
2021/06/11 05:09:30;;;;;;;2.95;0.57;;;17.20;77.60;;;;;;4808025;29;20069;-72
2021/06/11 05:11:58;;;;;;;3.13;0.93;;;17.30;77.50;;;;;;4814851;29;20054;-74
2021/06/11 05:14:26;;;;;;;2.17;0.65;;;17.30;77.30;;;;;;4826858;29;20046;-73
2021/06/11 05:16:54;;;;;;;2.42;0.60;;;17.30;77.30;;;;;;4827704;29;20054;-73
2021/06/11 05:19:22;;;;;;;0.98;0.60;;;17.30;77.10;;;;;;4827330;29;20062;-76
2021/06/11 05:21:50;;;;;;;4.00;0.85;;;17.30;77.10;;;;;;4824122;29;20069;-70
2021/06/11 05:24:18;;;;;;;0.88;0.75;;;17.30;77.00;;;;;;4826388;29;20062;-71
2021/06/11 05:26:46;;;;;;;1.20;0.50;;;17.30;76.90;;;;;;4809500;29;20362;-71
2021/06/11 05:29:14;;;;;;;1.50;0.60;;;17.30;76.90;;;;;;4807327;29;20046;-70
2021/06/11 05:31:42;;;;;;;1.17;0.57;;;17.30;76.80;;;;;;4808481;29;20057;-71
2021/06/11 05:34:11;;;;;;;0.93;0.68;;;17.30;76.80;;;;;;4820838;29;20070;-72
2021/06/11 05:36:39;;;;;;;2.17;0.70;;;17.30;76.80;;;;;;4814457;29;20382;-72
2021/06/11 05:39:07;;;;;;;2.60;0.80;;;17.30;76.80;;;;;;4808293;29;20059;-71
2021/06/11 05:41:36;;;;;;;0.98;0.80;;;17.30;76.80;;;;;;4823596;29;20047;-75
2021/06/11 05:44:04;;;;;;;0.90;0.82;;;17.30;76.80;;;;;;4816035;29;20401;-72
2021/06/11 05:46:33;;;;;;;0.85;0.63;;;17.30;76.80;;;;;;4814689;29;20062;-70
2021/06/11 05:49:01;;;;;;;1.20;0.60;;;17.20;76.80;;;;;;4839959;29;20073;-72
2021/06/11 05:51:29;;;;;;;1.95;1.10;;;17.30;76.80;;;;;;4814991;29;20054;-73
2021/06/11 05:53:58;;;;;;;1.48;1.10;;;17.20;76.80;;;;;;4808907;29;20478;-71
2021/06/11 05:56:27;;;;;;;1.85;1.30;;;17.20;76.80;;;;;;4808191;29;20059;-74
2021/06/11 05:58:55;;;;;;;1.30;1.20;;;17.10;76.80;;;;;;4808549;29;20550;-72
2021/06/11 06:01:24;;;;;;;1.77;0.80;;;17.10;76.70;;;;;;4807939;29;20055;-73
2021/06/11 06:03:52;;;;;;;1.55;0.55;;;17.10;76.70;;;;;;4809408;29;20058;-73
2021/06/11 06:06:20;;;;;;;1.65;0.75;;;17.20;76.60;;;;;;4823256;29;20055;-73
2021/06/11 06:08:48;;;;;;;1.60;0.40;;;17.10;76.60;;;;;;4810135;29;20481;-73
2021/06/11 06:11:16;;;;;;;0.80;0.60;;;17.10;76.60;;;;;;4844525;29;20381;-73
2021/06/11 06:13:44;;;;;;;2.58;0.77;;;17.10;76.50;;;;;;4813151;29;20070;-75
2021/06/11 06:16:12;;;;;;;0.75;0.30;;;17.10;76.50;;;;;;4817826;29;20507;-72
2021/06/11 06:18:44;;;;;;;0.75;0.60;;;17.10;76.40;;;;;;4819015;29;20054;-72
2021/06/11 06:21:12;;;;;;;0.57;0.40;;;17.10;76.40;;;;;;4818345;29;20485;-75
2021/06/11 06:23:39;;;;;;;1.75;0.70;;;17.10;76.40;;;;;;4816079;29;20074;-73
2021/06/11 06:26:07;;;;;;;0.40;0.40;;;17.10;76.40;;;;;;4826080;29;20405;-73
2021/06/11 06:28:35;;;;;;;0.30;0.30;;;17.20;76.40;;;;;;4811344;29;20055;-74
2021/06/11 06:31:03;;;;;;;0.40;0.40;;;17.20;76.30;;;;;;4826498;29;20062;-74
2021/06/11 06:33:31;;;;;;;0.30;0.30;;;17.10;76.30;;;;;;4803636;29;20078;-72
2021/06/11 06:35:59;;;;;;;0.95;0.38;;;17.20;76.20;;;;;;4809716;29;20055;-74
2021/06/11 06:38:30;;;;;;;0.93;0.60;;;17.10;76.10;;;;;;4816300;29;20054;-71
2021/06/11 06:41:00;;;;;;;2.00;0.57;;;17.10;76.10;;;;;;4839752;29;20046;-71
2021/06/11 06:43:29;;;;;;;0.98;0.60;;;17.10;76.00;;;;;;4823596;29;20065;-75
2021/06/11 06:45:58;;;;;;;1.33;0.40;;;17.20;76.10;;;;;;4813756;29;20059;-75
2021/06/11 06:48:27;;;;;;;1.00;0.90;;;17.10;76.10;;;;;;4807200;29;20059;-75
2021/06/11 06:50:57;;;;;;;2.67;0.70;;;17.10;76.20;;;;;;4849339;29;20058;-75
2021/06/11 06:53:25;;;;;;;2.65;0.50;;;17.10;76.20;;;;;;4818137;29;20054;-72
2021/06/11 06:55:53;;;;;;;0.57;0.50;;;17.20;76.20;;;;;;4846732;29;20055;-73
2021/06/11 06:58:21;;;;;;;1.65;0.35;;;17.20;76.30;;;;;;4853194;29;20065;-74
2021/06/11 07:00:49;;;;;;;1.33;0.68;;;17.20;76.30;;;;;;4809460;29;20055;-73
2021/06/11 07:03:18;;;;;;;1.05;0.63;;;17.20;76.20;;;;;;4814711;29;20059;-71
2021/06/11 07:05:45;;;;;;;0.60;0.43;;;17.20;76.20;;;;;;4815215;29;20069;-72
2021/06/11 07:08:13;;;;;;;2.10;0.40;;;17.30;76.20;;;;;;4826301;29;20051;-75
2021/06/11 07:10:42;;;;;;;2.38;0.90;;;17.30;76.20;;;;;;4812985;29;20050;-72
2021/06/11 07:13:13;;;;;;;1.38;0.77;;;17.20;76.20;;;;;;4812579;29;20393;-74
2021/06/11 07:15:41;;;;;;;0.40;0.40;;;17.20;76.20;;;;;;4820271;29;20051;-71
2021/06/11 07:18:10;;;;;;;0.55;0.40;;;17.20;76.30;;;;;;4814723;29;20066;-74
2021/06/11 07:20:38;;;;;;;0.52;0.40;;;17.30;76.30;;;;;;4830861;29;20069;-72
2021/06/11 07:23:06;;;;;;;2.72;0.40;;;17.30;76.30;;;;;;4812109;29;20077;-72
2021/06/11 07:25:33;;;;;;;0.88;0.20;;;17.30;76.30;;;;;;4809499;29;20065;-73
2021/06/11 07:28:02;;;;;;;1.25;0.30;;;17.30;76.30;;;;;;4810281;29;20078;-72
2021/06/11 07:30:31;;;;;;;0.35;0.20;;;17.30;76.20;;;;;;4821822;29;20055;-71
2021/06/11 07:32:59;;;;;;;1.25;0.30;;;17.40;76.10;;;;;;4806809;29;20058;-71
2021/06/11 07:35:27;;;;;;;0.17;0.17;;;17.40;76.00;;;;;;4806184;29;20086;-72
2021/06/11 07:37:55;;;;;;;0.40;0.40;;;17.40;75.90;;;;;;4814207;29;20414;-73
2021/06/11 07:40:26;;;;;;;0.68;0.40;;;17.40;75.80;;;;;;4824083;29;20070;-73
2021/06/11 07:42:54;;;;;;;0.32;0.28;;;17.50;75.80;;;;;;4815373;29;20481;-71
2021/06/11 07:45:22;;;;;;;1.30;0.28;;;17.40;75.80;;;;;;4820574;29;20061;-75
2021/06/11 07:47:50;;;;;;;2.92;0.28;;;17.50;75.80;;;;;;4826888;29;20058;-71
2021/06/11 07:50:19;;;;;;;0.20;0.20;;;17.50;75.70;;;;;;4828881;29;20058;-73
2021/06/11 07:52:48;;;;;;;0.17;0.17;;;17.50;75.40;;;;;;4811421;29;20058;-71
2021/06/11 07:55:17;;;;;;;0.40;0.25;;;17.50;75.10;;;;;;4839133;29;20051;-75
2021/06/11 07:57:44;;;;;;;0.75;0.13;;;17.50;75.00;;;;;;4818020;29;20077;-73
2021/06/11 08:00:13;;;;;;;1.13;0.30;;;17.50;74.90;;;;;;4824771;29;20073;-75
2021/06/11 08:02:57;;;;;;;0.47;0.20;;;17.60;74.80;;;;;;4812774;29;20401;-74
2021/06/11 08:05:27;;;;;;;0.20;0.20;;;17.60;74.70;;;;;;4814393;29;20049;-72
2021/06/11 08:07:56;;;;;;;1.63;0.15;;;17.70;74.50;;;;;;4829042;29;20059;-72
2021/06/11 08:10:26;;;;;;;0.20;0.20;;;17.70;74.40;;;;;;4813590;29;20381;-73
2021/06/11 08:12:55;;;;;;;1.27;0.22;;;17.80;74.20;;;;;;4820876;29;20504;-72
2021/06/11 08:15:23;;;;;;;0.38;0.20;;;17.80;74.00;;;;;;4818117;29;20054;-74
2021/06/11 08:17:52;;;;;;;0.20;0.20;;;17.80;73.90;;;;;;4815583;29;20065;-73
2021/06/11 08:20:21;;;;;;;1.65;0.20;;;17.90;73.80;;;;;;4815029;29;20474;-75
2021/06/11 08:22:49;;;;;;;0.80;0.20;;;18.00;73.50;;;;;;4810329;29;20058;-73
2021/06/11 08:25:17;;;;;;;0.40;0.30;;;18.00;73.30;;;;;;4811154;29;20066;-75
2021/06/11 08:27:45;;;;;;;0.50;0.38;;;18.00;73.20;;;;;;4809200;29;20054;-75
2021/06/11 08:30:14;;;;;;;0.20;0.20;;;18.00;73.00;;;;;;4824306;29;20061;-71
2021/06/11 08:32:49;;;;;;;0.80;0.30;;;18.00;72.90;;;;;;4809469;29;20065;-74
2021/06/11 08:35:18;;;;;;;0.30;0.30;;;18.00;72.70;;;;;;4808356;29;20051;-71
2021/06/11 08:37:47;;;;;;;4.40;1.30;;;18.00;72.30;;;;;;4828287;29;20063;-73
2021/06/11 08:40:16;;;;;;;1.05;0.40;;;18.00;72.20;;;;;;4805323;29;20492;-73
2021/06/11 08:42:56;;;;;;;3.15;0.50;;;18.00;72.10;;;;;;4814274;29;20073;-77
2021/06/11 08:45:29;;;;;;;0.70;0.47;;;18.10;72.10;;;;;;4818521;29;20062;-72
2021/06/11 08:47:58;;;;;;;1.30;0.35;;;18.00;71.90;;;;;;4813957;29;21093;-72
2021/06/11 08:50:29;;;;;;;0.98;0.60;;;18.10;71.70;;;;;;4816911;29;20062;-76
2021/06/11 08:53:01;;;;;;;1.60;0.40;;;18.00;71.60;;;;;;4816733;29;20055;-74
2021/06/11 08:55:29;;;;;;;1.45;0.50;;;18.00;71.60;;;;;;4819645;29;20050;-76
2021/06/11 08:57:57;;;;;;;0.82;0.50;;;18.00;71.70;;;;;;4816437;29;20409;-72
2021/06/11 09:00:28;;;;;;;0.45;0.45;;;18.00;71.60;;;;;;4816806;29;20051;-74
2021/06/11 09:03:13;;;;;;;0.40;0.40;;;18.00;71.70;;;;;;4813712;29;20461;-74
2021/06/11 09:05:46;;;;;;;1.13;0.60;;;18.00;72.00;;;;;;4821422;29;20497;-74
2021/06/11 09:08:20;;;;;;;0.82;0.73;;;18.00;72.10;;;;;;4821649;29;20071;-74
2021/06/11 09:10:50;;;;;;;1.35;0.65;;;18.00;72.30;;;;;;4805494;29;20565;-74
2021/06/11 09:13:29;;;;;;;0.88;0.70;;;18.10;72.50;;;;;;4809077;29;20101;-74
2021/06/11 09:16:17;;;;;;;0.60;0.57;;;18.20;72.40;;;;;;4814413;29;20062;-73
2021/06/11 09:19:05;;;;;;;1.85;0.70;;;18.20;72.30;;;;;;4823363;29;20842;-72
2021/06/11 09:21:38;;;;;;;0.85;0.50;;;18.30;72.10;;;;;;4808604;29;20054;-74
2021/06/11 09:27:04;;;;;;;0.67;0.50;;;18.30;71.80;;;;;;4817557;29;20058;-73
2021/06/11 09:29:34;;;;;;;5.70;0.82;;;18.30;71.60;;;;;;4807317;29;20816;-75
2021/06/11 09:32:19;;;;;;;20.33;1.50;;;18.30;71.60;;;;;;4838552;29;20059;-75
2021/06/11 09:34:51;;;;;;;1.52;0.80;;;18.30;71.50;;;;;;4813418;29;20149;-75
2021/06/11 09:37:27;;;;;;;2.50;0.60;;;18.30;71.50;;;;;;4816400;29;20046;-74
2021/06/11 09:40:02;;;;;;;2.70;0.68;;;18.40;71.50;;;;;;4808493;29;20063;-75
2021/06/11 09:42:33;;;;;;;0.70;0.70;;;18.30;71.50;;;;;;4802181;29;20054;-74
2021/06/11 09:45:04;;;;;;;1.08;0.50;;;18.30;71.50;;;;;;4822176;29;20062;-72
2021/06/11 09:47:33;;;;;;;1.05;0.70;;;18.30;71.60;;;;;;4815375;29;20070;-70
2021/06/11 09:50:14;;;;;;;0.88;0.77;;;18.30;71.80;;;;;;4830627;29;20055;-73
2021/06/11 09:53:04;;;;;;;1.17;0.50;;;18.30;71.80;;;;;;4816666;29;20057;-74
2021/06/11 09:55:40;;;;;;;2.58;0.55;;;18.30;71.80;;;;;;4807092;29;20057;-70
2021/06/11 09:58:14;;;;;;;0.50;0.50;;;18.30;71.90;;;;;;4807272;29;20408;-73
2021/06/11 10:00:54;;;;;;;2.20;0.50;;;18.20;72.10;;;;;;4807485;29;20051;-75
2021/06/11 10:03:25;;;;;;;1.70;0.50;;;18.30;72.20;;;;;;4806676;29;20069;-72
2021/06/11 10:05:56;;;;;;;1.67;0.60;;;18.20;72.30;;;;;;4837219;29;20481;-72
2021/06/11 10:08:25;;;;;;;0.60;0.60;;;18.20;72.30;;;;;;4806867;29;20058;-73
2021/06/11 10:10:55;;;;;;;1.08;0.50;;;18.20;72.30;;;;;;4807932;29;20066;-75
2021/06/11 10:13:24;;;;;;;3.08;0.32;;;18.20;72.30;;;;;;4807542;29;20059;-76
2021/06/11 10:15:54;;;;;;;0.30;0.30;;;18.20;72.20;;;;;;4813125;29;20061;-75
2021/06/11 10:18:23;;;;;;;5.22;0.60;;;18.20;72.20;;;;;;4814024;29;20065;-74
2021/06/11 10:20:51;;;;;;;3.15;0.40;;;18.20;72.20;;;;;;4818114;29;20055;-73
2021/06/11 10:23:23;;;;;;;1.77;0.50;;;18.30;72.20;;;;;;4815792;29;20055;-74
2021/06/11 10:25:56;;;;;;;0.47;0.40;;;18.30;72.10;;;;;;4825391;29;20055;-74
2021/06/11 10:28:27;;;;;;;2.13;0.45;;;18.30;72.00;;;;;;4841511;29;20079;-71
2021/06/11 10:31:01;;;;;;;5.40;0.40;;;18.30;71.90;;;;;;4809473;29;20067;-71
2021/06/11 10:33:44;;;;;;;0.95;0.57;;;18.40;71.80;;;;;;4820483;29;20058;-71
2021/06/11 10:36:29;;;;;;;0.80;0.30;;;18.40;71.80;;;;;;4832939;29;20426;-74
2021/06/11 10:39:10;;;;;;;0.38;0.30;;;18.50;71.80;;;;;;4827396;29;20389;-72
2021/06/11 10:42:18;;;;;;;1.85;0.30;;;18.50;71.50;;;;;;4811404;29;20051;-71
2021/06/11 10:44:50;;;;;;;0.57;0.30;;;18.50;71.50;;;;;;4807018;29;20054;-74
2021/06/11 10:47:18;;;;;;;2.20;0.30;;;18.50;71.40;;;;;;4820592;29;20067;-73
2021/06/11 10:49:56;;;;;;;1.30;0.30;;;18.50;71.10;;;;;;4803842;29;20063;-75
2021/06/11 10:52:32;;;;;;;2.03;0.40;;;18.60;70.90;;;;;;4807441;29;20061;-71
2021/06/11 10:55:18;;;;;;;0.70;0.25;;;18.60;70.90;;;;;;4816689;29;20066;-74
2021/06/11 10:58:09;;;;;;;1.38;0.35;;;18.70;70.90;;;;;;4806156;29;20465;-74
2021/06/11 11:00:43;;;;;;;0.70;0.20;;;18.70;70.80;;;;;;4807220;29;20055;-75
2021/06/11 11:03:25;;;;;;;1.58;0.20;;;18.70;70.80;;;;;;4807729;29;20067;-70
2021/06/11 11:05:54;;;;;;;2.30;0.43;;;18.80;70.70;;;;;;4821115;29;20062;-72
2021/06/11 11:08:22;;;;;;;1.65;0.20;;;18.80;70.70;;;;;;4814235;29;20055;-75
2021/06/11 11:10:54;;;;;;;1.52;0.20;;;18.80;70.60;;;;;;4810081;29;20062;-73
2021/06/11 11:13:35;;;;;;;1.27;0.20;;;18.80;70.60;;;;;;4817607;29;20054;-73
2021/06/11 11:16:21;;;;;;;1.90;0.30;;;18.80;70.40;;;;;;4814964;29;20065;-73
2021/06/11 11:18:50;;;;;;;2.63;0.30;;;18.80;70.40;;;;;;4813473;29;20059;-71
2021/06/11 11:21:22;;;;;;;1.00;0.20;;;18.80;70.50;;;;;;4816050;29;20491;-71
2021/06/11 11:23:53;;;;;;;3.85;0.20;;;18.80;70.60;;;;;;4808775;29;20066;-72
2021/06/11 11:26:41;;;;;;;1.55;0.30;;;18.80;70.60;;;;;;4807487;29;20062;-72
2021/06/11 11:29:10;;;;;;;4.28;0.25;;;18.90;70.40;;;;;;4815578;29;20130;-74
2021/06/11 11:31:39;;;;;;;2.13;0.20;;;19.00;70.20;;;;;;4814597;29;20473;-73
2021/06/11 11:34:07;;;;;;;0.60;0.20;;;19.00;70.20;;;;;;4824736;29;20065;-74
2021/06/11 11:36:37;;;;;;;2.40;0.38;;;19.10;69.90;;;;;;4811690;29;20050;-74
2021/06/11 11:39:08;;;;;;;0.65;0.30;;;19.10;69.60;;;;;;4806197;29;20059;-73
2021/06/11 11:41:38;;;;;;;1.50;0.20;;;19.20;69.50;;;;;;4804961;29;20055;-73
2021/06/11 11:44:07;;;;;;;0.22;0.20;;;19.30;69.20;;;;;;4818579;29;20056;-74
2021/06/11 11:46:52;;;;;;;0.40;0.20;;;19.30;69.00;;;;;;4817654;29;20495;-74
2021/06/11 11:49:21;;;;;;;0.20;0.20;;;19.30;69.00;;;;;;4809542;29;20054;-74
2021/06/11 11:51:50;;;;;;;7.90;0.50;;;19.30;68.80;;;;;;4810648;29;20073;-72
2021/06/11 11:54:19;;;;;;;0.30;0.30;;;19.30;69.00;;;;;;4813113;29;20058;-74
2021/06/11 11:56:46;;;;;;;2.25;0.30;;;19.30;69.00;;;;;;4820285;29;20080;-71
2021/06/11 11:59:15;;;;;;;0.28;0.28;;;19.30;68.90;;;;;;4810577;29;20051;-71
2021/06/11 12:01:44;;;;;;;1.30;0.40;;;19.30;68.80;;;;;;4806068;29;20378;-72
2021/06/11 12:04:15;;;;;;;0.85;0.28;;;19.30;68.90;;;;;;4809436;29;20066;-73
2021/06/11 12:06:44;;;;;;;1.48;0.50;;;19.30;68.90;;;;;;4824521;29;20054;-74
2021/06/11 12:09:13;;;;;;;0.63;0.30;;;19.20;68.90;;;;;;4812200;29;20055;-74
2021/06/11 12:11:41;;;;;;;0.90;0.40;;;19.20;68.80;;;;;;4809470;29;20077;-72
2021/06/11 12:14:09;;;;;;;2.08;0.40;;;19.10;68.90;;;;;;4810265;29;20063;-71
2021/06/11 12:16:38;;;;;;;3.28;0.57;;;19.10;69.10;;;;;;4806333;29;20397;-72
2021/06/11 12:19:06;;;;;;;0.73;0.30;;;19.20;69.20;;;;;;4795468;29;20067;-72
2021/06/11 12:21:35;;;;;;;0.75;0.30;;;19.20;69.00;;;;;;4826543;29;20057;-75
2021/06/11 12:24:04;;;;;;;0.68;0.10;;;19.20;68.80;;;;;;4813882;29;20066;-76
2021/06/11 12:26:32;;;;;;;0.60;0.30;;;19.30;68.70;;;;;;4818792;29;20058;-75
2021/06/11 12:29:01;;;;;;;2.35;0.60;;;19.30;68.90;;;;;;4855322;29;20062;-74
2021/06/11 12:31:34;;;;;;;2.75;0.65;;;19.40;69.00;;;;;;4811764;29;20370;-72
2021/06/11 12:34:03;;;;;;;0.40;0.30;;;19.60;68.80;;;;;;4817794;29;20074;-71
2021/06/11 12:36:31;;;;;;;1.30;0.20;;;19.70;68.20;;;;;;4810405;29;20051;-74
2021/06/11 12:38:59;;;;;;;1.10;0.20;;;19.80;67.80;;;;;;4812104;29;20063;-73
2021/06/11 12:41:32;;;;;;;0.20;0.20;;;19.80;67.60;;;;;;4811725;29;20054;-72
2021/06/11 12:44:16;;;;;;;1.75;0.25;;;19.80;67.60;;;;;;4814473;29;20043;-72
2021/06/11 12:46:53;;;;;;;1.70;0.17;;;19.80;67.70;;;;;;4829142;29;20059;-74
2021/06/11 12:49:23;;;;;;;0.10;0.10;;;19.80;67.80;;;;;;4813263;29;20126;-72
2021/06/11 12:51:54;;;;;;;0.30;0.20;;;19.80;67.80;;;;;;4813244;29;20122;-72
2021/06/11 12:54:22;;;;;;;0.20;0.20;;;19.80;67.70;;;;;;4810191;29;20073;-74
2021/06/11 12:56:50;;;;;;;0.30;0.30;;;19.80;67.40;;;;;;4820854;29;20058;-73
2021/06/11 12:59:18;;;;;;;1.15;0.40;;;19.70;67.40;;;;;;4825909;29;20508;-71
2021/06/11 13:01:47;;;;;;;0.40;0.22;;;19.70;67.50;;;;;;4822174;29;20066;-70
2021/06/11 13:04:15;;;;;;;0.90;0.30;;;19.60;67.50;;;;;;4841835;29;20054;-73
2021/06/11 13:06:42;;;;;;;0.65;0.30;;;19.60;67.60;;;;;;4815233;29;20385;-75
2021/06/11 13:09:11;;;;;;;0.38;0.30;;;19.50;67.60;;;;;;4812326;29;20070;-72
2021/06/11 13:11:40;;;;;;;0.98;0.50;;;19.50;67.70;;;;;;4815907;29;20054;-73